Time;durP1;ratioP1;P1;durP2;ratioP2;P2;SDS_P1;SDS_P2;PMS_P1;PMS_P2;Temp;Humidity;BMP_temperature;BMP_pressure;BME280_temperature;BME280_humidity;BME280_pressure;Samples;Min_cycle;Max_cycle;Signal;HPM_P1;HPM_P2
2021/03/17 00:03:40;;;;;;;9.50;4.90;;;;;;;4.29;96.98;100903.84;20908126;28;20432;-69
2021/03/17 00:13:43;;;;;;;8.45;4.35;;;;;;;4.28;97.07;100886.59;20888927;28;20051;-69
2021/03/17 00:23:44;;;;;;;9.02;4.75;;;;;;;4.13;99.20;100887.78;20896542;28;20049;-69
2021/03/17 00:33:44;;;;;;;7.60;4.18;;;;;;;4.13;99.04;100871.38;20903821;28;20057;-69
2021/03/17 00:43:46;;;;;;;7.72;3.95;;;;;;;3.97;98.63;100872.56;20891943;28;20041;-69
2021/03/17 00:53:47;;;;;;;7.32;3.55;;;;;;;3.89;99.41;100877.91;20899002;28;20075;-70
2021/03/17 01:03:48;;;;;;;6.72;3.47;;;;;;;3.91;100.00;100870.13;20895763;28;20420;-69
2021/03/17 01:13:50;;;;;;;6.60;3.72;;;;;;;3.94;99.61;100857.94;20901078;28;20045;-69
2021/03/17 01:23:51;;;;;;;7.78;3.88;;;;;;;3.99;99.99;100858.72;20915190;28;20056;-69
2021/03/17 01:33:52;;;;;;;8.48;4.43;;;;;;;3.99;99.49;100842.31;20918749;28;20504;-70
2021/03/17 01:43:53;;;;;;;6.82;3.90;;;;;;;3.86;100.00;100846.88;20902680;28;20606;-69
2021/03/17 01:53:54;;;;;;;6.53;3.78;;;;;;;3.72;100.00;100846.28;20900788;28;20099;-69
2021/03/17 02:03:55;;;;;;;7.63;3.80;;;;;;;3.48;100.00;100844.16;20905163;28;20115;-69
2021/03/17 02:14:17;;;;;;;7.10;3.72;;;;;;;3.52;100.00;100850.97;20915612;28;20048;-69
2021/03/17 02:24:25;;;;;;;7.20;3.70;;;;;;;3.62;100.00;100847.34;20900730;28;20137;-70
2021/03/17 02:34:33;;;;;;;9.10;3.83;;;;;;;3.58;100.00;100850.88;20913611;28;20041;-69
2021/03/17 02:44:43;;;;;;;5.70;3.30;;;;;;;3.54;100.00;100844.91;20906065;28;20045;-70
2021/03/17 02:54:47;;;;;;;5.70;3.03;;;;;;;3.51;100.00;100834.59;20904077;28;20384;-69
2021/03/17 03:04:54;;;;;;;5.78;3.17;;;;;;;3.63;100.00;100842.16;20903960;28;20060;-70
2021/03/17 03:14:56;;;;;;;6.13;2.97;;;;;;;3.48;100.00;100845.03;21002279;23;20048;-72
2021/03/17 03:24:58;;;;;;;5.82;3.20;;;;;;;3.48;100.00;100844.16;20956701;28;20040;-72
2021/03/17 03:34:59;;;;;;;5.95;3.10;;;;;;;3.43;100.00;100842.53;20958368;28;20107;-72
2021/03/17 03:45:00;;;;;;;5.47;3.20;;;;;;;3.45;100.00;100855.44;20955742;28;20094;-72
2021/03/17 03:55:11;;;;;;;6.70;2.90;;;;;;;3.47;100.00;100861.41;20946820;28;20439;-72
2021/03/17 04:05:17;;;;;;;5.70;3.25;;;;;;;3.39;100.00;100871.94;20967165;28;20050;-72
2021/03/17 04:15:20;;;;;;;6.07;3.30;;;;;;;3.39;100.00;100864.16;20949975;28;20059;-73
2021/03/17 04:25:23;;;;;;;6.50;3.50;;;;;;;3.47;100.00;100873.50;20942171;28;20056;-72
2021/03/17 04:35:25;;;;;;;6.47;3.35;;;;;;;3.44;100.00;100879.59;20944850;28;20488;-73
2021/03/17 04:45:26;;;;;;;7.18;3.90;;;;;;;3.41;100.00;100883.06;20927866;28;20076;-73
2021/03/17 04:55:28;;;;;;;5.95;3.35;;;;;;;3.48;100.00;100895.91;20968660;28;20292;-73
2021/03/17 05:05:31;;;;;;;6.63;3.88;;;;;;;3.57;100.00;100911.28;20944123;28;20094;-72
2021/03/17 05:15:32;;;;;;;6.40;3.65;;;;;;;3.52;100.00;100913.09;20965007;28;20044;-73
2021/03/17 05:25:34;;;;;;;7.82;4.03;;;;;;;3.43;100.00;100909.78;20970482;28;20403;-72
2021/03/17 05:35:36;;;;;;;7.18;3.63;;;;;;;3.41;100.00;100911.53;20959632;28;20037;-72
2021/03/17 05:45:38;;;;;;;8.90;4.40;;;;;;;3.42;100.00;100908.06;20979822;28;20539;-71
2021/03/17 05:55:43;;;;;;;8.48;5.05;;;;;;;3.50;100.00;100920.91;20968720;28;20127;-71
2021/03/17 06:05:45;;;;;;;8.85;4.93;;;;;;;3.42;100.00;100923.59;20950903;28;20052;-71
2021/03/17 06:15:56;;;;;;;15.55;8.43;;;;;;;3.51;100.00;100932.06;20955883;28;20048;-71
2021/03/17 06:26:04;;;;;;;18.10;9.02;;;;;;;3.44;100.00;100955.50;20977641;28;20675;-72
2021/03/17 06:36:15;;;;;;;19.55;10.32;;;;;;;3.60;100.00;100963.00;20960871;28;20404;-73
2021/03/17 06:46:18;;;;;;;27.17;13.20;;;;;;;3.65;100.00;100976.72;20934624;28;20041;-74
2021/03/17 06:56:35;;;;;;;27.65;13.15;;;;;;;3.59;100.00;100984.59;20943034;28;20040;-73
2021/03/17 07:06:41;;;;;;;27.83;12.80;;;;;;;3.54;100.00;100988.97;20957190;28;20533;-74
2021/03/17 07:16:47;;;;;;;30.33;14.63;;;;;;;3.56;100.00;101000.16;20953772;28;20052;-73
2021/03/17 07:26:53;;;;;;;35.75;15.60;;;;;;;3.59;100.00;100989.75;20923765;28;20051;-73
2021/03/17 07:36:59;;;;;;;28.85;14.20;;;;;;;3.83;100.00;100986.75;20942071;28;20037;-73
2021/03/17 07:47:02;;;;;;;32.03;13.98;;;;;;;4.12;100.00;101012.13;20949001;28;20553;-72
2021/03/17 07:57:26;;;;;;;29.42;15.60;;;;;;;4.30;100.00;101019.59;20945454;28;20123;-72
2021/03/17 08:07:28;;;;;;;23.55;11.93;;;;;;;4.78;94.27;100997.00;20935072;28;20044;-72
2021/03/17 08:17:30;;;;;;;19.20;9.18;;;;;;;5.18;91.24;100997.03;20940593;28;20086;-71
2021/03/17 08:27:40;;;;;;;16.83;8.75;;;;;;;4.83;83.43;100987.38;20947552;28;20082;-72
2021/03/17 08:37:49;;;;;;;21.90;9.32;;;;;;;4.92;84.72;100982.03;20940350;28;20049;-71
2021/03/17 08:47:52;;;;;;;16.27;8.27;;;;;;;5.87;81.22;100994.50;20947741;28;20466;-71
2021/03/17 08:58:06;;;;;;;20.40;10.30;;;;;;;5.86;77.93;100997.94;20958027;28;20079;-72
2021/03/17 09:08:11;;;;;;;21.73;11.02;;;;;;;6.01;78.84;101002.78;20932678;28;20037;-71
2021/03/17 09:18:13;;;;;;;19.83;10.20;;;;;;;5.99;78.82;101004.56;20954332;28;20076;-70
2021/03/17 09:28:34;;;;;;;26.90;12.27;;;;;;;6.15;79.95;100998.94;20950462;28;20064;-71
2021/03/17 09:38:38;;;;;;;21.23;11.07;;;;;;;6.22;78.72;101000.50;20986877;23;20043;-69
2021/03/17 09:48:40;;;;;;;20.67;9.40;;;;;;;6.63;76.65;100992.44;20982287;28;20411;-69
2021/03/17 09:58:50;;;;;;;27.92;9.73;;;;;;;6.61;74.68;100988.16;20992575;28;20051;-69
2021/03/17 10:08:55;;;;;;;17.52;9.43;;;;;;;6.79;76.81;100975.47;20982340;28;20037;-70
2021/03/17 10:18:59;;;;;;;17.90;9.25;;;;;;;7.10;75.88;100965.00;20989477;28;20384;-70
2021/03/17 10:29:05;;;;;;;15.32;7.68;;;;;;;6.92;77.28;100962.09;20990601;28;20078;-70
2021/03/17 10:39:06;;;;;;;17.42;8.32;;;;;;;6.87;78.08;100952.69;20961820;28;20483;-70
2021/03/17 10:49:07;;;;;;;11.93;5.28;;;;;;;6.27;78.10;100957.06;20935133;28;20045;-69
2021/03/17 10:59:08;;;;;;;10.73;4.40;;;;;;;5.96;80.59;100963.06;20972238;28;20052;-70
2021/03/17 11:09:11;;;;;;;10.70;5.20;;;;;;;5.59;86.54;100972.66;20976819;28;20067;-69
2021/03/17 11:19:13;;;;;;;13.98;6.18;;;;;;;4.40;100.00;100973.63;20984507;28;20063;-69
2021/03/17 11:29:18;;;;;;;10.27;5.57;;;;;;;4.77;100.00;100966.78;20984190;28;20051;-69
2021/03/17 11:39:19;;;;;;;11.07;5.40;;;;;;;5.41;100.00;100949.75;20959619;28;20047;-70
2021/03/17 11:49:20;;;;;;;10.02;5.00;;;;;;;6.18;95.03;100939.97;20962683;28;20071;-71
2021/03/17 11:59:21;;;;;;;10.77;6.00;;;;;;;7.59;95.93;100930.41;20977540;28;20590;-71
2021/03/17 12:09:22;;;;;;;8.00;4.18;;;;;;;6.16;89.44;100922.69;20973263;28;20454;-71
2021/03/17 12:19:23;;;;;;;8.00;4.25;;;;;;;5.06;98.01;100920.31;20980798;28;20036;-70
2021/03/17 12:29:24;;;;;;;8.65;3.97;;;;;;;5.32;96.64;100905.84;20982777;28;20178;-70
2021/03/17 12:39:26;;;;;;;6.70;3.25;;;;;;;5.97;96.47;100881.66;20971086;28;20037;-71
2021/03/17 12:49:28;;;;;;;6.35;3.00;;;;;;;5.97;86.05;100876.44;20964074;28;20048;-71
2021/03/17 12:59:30;;;;;;;6.60;3.22;;;;;;;6.52;83.56;100868.78;20981314;28;20044;-71
2021/03/17 13:09:31;;;;;;;5.70;3.13;;;;;;;7.00;76.57;100864.69;20972599;28;20113;-71
2021/03/17 13:19:33;;;;;;;8.10;4.03;;;;;;;5.75;92.80;100883.06;20991098;28;20054;-71
2021/03/17 13:29:34;;;;;;;5.75;2.65;;;;;;;4.99;99.60;100885.00;20994687;28;20506;-70
2021/03/17 13:39:35;;;;;;;9.00;4.05;;;;;;;5.01;93.33;100888.44;20971155;28;20412;-70
2021/03/17 13:49:37;;;;;;;5.18;2.17;;;;;;;4.89;92.19;100885.25;20994082;28;20052;-70
2021/03/17 13:59:38;;;;;;;5.32;2.22;;;;;;;5.37;90.56;100886.69;20971087;28;20049;-70
2021/03/17 14:09:39;;;;;;;3.30;1.50;;;;;;;5.37;81.49;100891.03;20982093;28;20043;-71
2021/03/17 14:19:40;;;;;;;5.30;2.30;;;;;;;5.72;83.25;100885.78;20985735;28;20053;-71
2021/03/17 14:29:42;;;;;;;5.90;3.30;;;;;;;5.63;82.30;100896.41;20992058;28;20083;-71
2021/03/17 14:39:43;;;;;;;5.45;2.53;;;;;;;5.58;81.34;100901.72;20982111;28;20064;-70
2021/03/17 14:49:44;;;;;;;4.18;1.75;;;;;;;5.35;78.29;100910.97;20974181;28;20052;-70
2021/03/17 14:59:46;;;;;;;4.28;1.80;;;;;;;5.65;75.21;100904.13;20964262;28;20098;-71
2021/03/17 15:09:47;;;;;;;5.05;1.50;;;;;;;5.83;72.41;100904.53;20988255;28;20048;-71
2021/03/17 15:19:48;;;;;;;3.65;1.63;;;;;;;5.75;71.46;100909.03;20999530;28;20048;-70
2021/03/17 15:29:49;;;;;;;6.97;1.83;;;;;;;5.88;69.76;100920.88;21006593;28;20086;-70
2021/03/17 15:39:51;;;;;;;5.38;2.20;;;;;;;5.66;69.94;100919.69;20971332;28;20036;-70
2021/03/17 15:49:52;;;;;;;6.63;2.00;;;;;;;5.63;70.03;100931.91;20981884;28;20102;-70
2021/03/17 15:59:53;;;;;;;3.08;1.38;;;;;;;5.61;65.29;100934.53;20978328;28;20412;-70
2021/03/17 16:09:54;;;;;;;5.68;2.20;;;;;;;5.39;66.27;100946.31;20950961;28;20037;-69
2021/03/17 16:19:55;;;;;;;6.53;2.67;;;;;;;5.41;67.78;100954.94;20972291;28;20045;-69
2021/03/17 16:29:56;;;;;;;4.47;1.65;;;;;;;5.30;68.69;100965.56;20973758;28;20048;-70
2021/03/17 16:39:57;;;;;;;5.07;2.22;;;;;;;5.18;69.02;100961.50;20970372;28;20040;-70
2021/03/17 16:49:59;;;;;;;7.63;2.58;;;;;;;5.24;70.30;100968.31;20972145;28;20547;-70
2021/03/17 17:00:00;;;;;;;7.82;3.58;;;;;;;5.12;71.25;100986.78;20991071;28;20415;-69
2021/03/17 17:10:03;;;;;;;7.68;2.30;;;;;;;5.04;71.41;100976.56;20987694;28;20071;-70
2021/03/17 17:20:10;;;;;;;6.53;3.13;;;;;;;4.95;70.41;100994.91;20985589;28;20101;-69
2021/03/17 17:30:20;;;;;;;8.90;2.67;;;;;;;4.92;71.32;100999.31;20980789;28;20049;-70
2021/03/17 17:40:23;;;;;;;10.88;5.00;;;;;;;4.96;72.35;101003.56;20975607;28;20512;-69
2021/03/17 17:50:25;;;;;;;10.48;3.40;;;;;;;4.81;74.98;101015.13;20993710;28;20051;-70
2021/03/17 18:00:26;;;;;;;5.78;2.50;;;;;;;4.67;73.54;101043.06;20957995;28;20428;-71
2021/03/17 18:10:28;;;;;;;6.40;2.30;;;;;;;4.68;74.09;101052.53;20966485;28;20045;-71
2021/03/17 18:20:32;;;;;;;10.25;3.42;;;;;;;4.72;72.38;101069.75;20987421;28;20052;-70
2021/03/17 18:30:33;;;;;;;11.45;3.83;;;;;;;4.66;72.26;101075.06;20977410;28;20056;-71
2021/03/17 18:40:36;;;;;;;7.55;3.35;;;;;;;4.63;72.13;101101.03;20966233;28;20062;-70
2021/03/17 18:50:37;;;;;;;9.30;4.22;;;;;;;4.57;73.76;101090.78;20989456;28;20499;-70
2021/03/17 19:00:43;;;;;;;8.95;3.72;;;;;;;4.44;73.44;101099.66;20980200;28;20522;-70
2021/03/17 19:10:48;;;;;;;10.70;4.47;;;;;;;4.48;75.03;101104.75;20975404;28;20052;-71
2021/03/17 19:20:53;;;;;;;7.25;4.13;;;;;;;4.31;75.24;101106.81;20966875;28;20048;-70
2021/03/17 19:30:54;;;;;;;7.93;4.15;;;;;;;4.30;74.83;101097.31;20891957;28;20047;-71
2021/03/17 19:40:58;;;;;;;8.85;3.03;;;;;;;4.32;75.72;101096.41;20939477;28;20044;-71
2021/03/17 19:51:04;;;;;;;7.90;3.05;;;;;;;4.23;nan;101099.16;20950148;28;20048;-70
2021/03/17 20:01:05;;;;;;;8.52;3.00;;;;;;;4.11;76.91;101101.97;20957610;28;20041;-71
2021/03/17 20:11:06;;;;;;;10.38;3.17;;;;;;;3.99;77.18;101109.06;20970818;28;20052;-70
2021/03/17 20:21:08;;;;;;;9.75;3.25;;;;;;;3.96;76.71;101112.56;20976524;28;20635;-70
2021/03/17 20:31:09;;;;;;;10.93;3.13;;;;;;;3.94;77.60;101109.16;20961534;28;20041;-70
2021/03/17 20:41:15;;;;;;;;;;;;;;;3.86;76.70;101113.56;20962916;28;20102;-69
2021/03/17 20:51:16;;;;;;;9.10;3.20;;;;;;;3.75;76.50;101118.94;20958404;28;20461;-70
2021/03/17 21:01:17;;;;;;;8.07;4.05;;;;;;;3.65;76.93;101106.16;20976844;28;20084;-69
2021/03/17 21:11:18;;;;;;;12.55;4.65;;;;;;;3.40;77.07;101111.66;20962266;28;20492;-70
2021/03/17 21:21:19;;;;;;;9.50;4.53;;;;;;;3.32;77.79;101123.84;20972056;28;20106;-70
2021/03/17 21:31:20;;;;;;;11.05;4.88;;;;;;;3.13;80.08;101132.72;20968794;28;20052;-69
2021/03/17 21:41:22;;;;;;;7.93;3.88;;;;;;;2.90;82.23;101148.47;20979310;28;20475;-69
2021/03/17 21:51:23;;;;;;;10.18;3.72;;;;;;;2.87;81.86;101161.44;20977308;28;20045;-70
2021/03/17 22:01:24;;;;;;;8.48;3.67;;;;;;;2.97;80.01;101186.34;20977929;28;20049;-70
2021/03/17 22:11:26;;;;;;;8.65;3.50;;;;;;;2.87;77.65;101202.81;20905198;28;20120;-70
2021/03/17 22:21:27;;;;;;;8.55;3.83;;;;;;;2.90;77.45;101207.94;20907723;28;20484;-69
2021/03/17 22:31:28;;;;;;;7.63;3.33;;;;;;;3.01;74.09;101220.75;20904262;28;20042;-70
2021/03/17 22:41:29;;;;;;;7.55;2.90;;;;;;;2.90;75.16;101212.25;20906351;28;20041;-69
2021/03/17 22:51:31;;;;;;;8.13;4.03;;;;;;;2.75;75.27;101217.56;20908320;28;20051;-70
2021/03/17 23:01:32;;;;;;;10.27;3.58;;;;;;;2.68;73.36;101216.78;20905503;28;20475;-69
2021/03/17 23:11:36;;;;;;;8.15;3.20;;;;;;;2.70;73.66;101216.75;20929253;23;20043;-70
2021/03/17 23:21:39;;;;;;;10.27;3.30;;;;;;;2.42;74.63;101211.84;20979406;28;20098;-72
2021/03/17 23:31:41;;;;;;;10.98;3.83;;;;;;;2.37;75.18;101192.94;20987383;28;20491;-72
2021/03/17 23:41:42;;;;;;;13.02;4.05;;;;;;;2.33;76.10;101204.16;20950258;28;20045;-71
2021/03/17 23:51:43;;;;;;;9.38;3.65;;;;;;;2.21;76.02;101204.25;20957807;28;20055;-71
